sensor_id;sensor_type;location;lat;lon;timestamp;temperature;humidity
7232;DHT22;3657;49.630;11.018;2023-12-20T00:00:10;4.50;99.90
7232;DHT22;3657;49.630;11.018;2023-12-20T00:02:36;4.50;99.90
7232;DHT22;3657;49.630;11.018;2023-12-20T00:05:04;4.50;99.90
7232;DHT22;3657;49.630;11.018;2023-12-20T00:07:30;4.50;99.90
7232;DHT22;3657;49.630;11.018;2023-12-20T00:09:57;4.50;99.90
7232;DHT22;3657;49.630;11.018;2023-12-20T00:12:25;4.50;99.90
7232;DHT22;3657;49.630;11.018;2023-12-20T00:14:52;4.40;99.90
7232;DHT22;3657;49.630;11.018;2023-12-20T00:17:18;4.50;99.90
7232;DHT22;3657;49.630;11.018;2023-12-20T00:19:45;4.50;99.90
7232;DHT22;3657;49.630;11.018;2023-12-20T00:22:12;4.50;99.90
7232;DHT22;3657;49.630;11.018;2023-12-20T00:24:38;4.50;99.90
7232;DHT22;3657;49.630;11.018;2023-12-20T00:27:05;4.50;99.90
7232;DHT22;3657;49.630;11.018;2023-12-20T00:29:33;4.50;99.90
7232;DHT22;3657;49.630;11.018;2023-12-20T00:32:00;4.50;99.90
7232;DHT22;3657;49.630;11.018;2023-12-20T00:34:27;4.50;99.90
7232;DHT22;3657;49.630;11.018;2023-12-20T00:36:53;4.50;99.90
7232;DHT22;3657;49.630;11.018;2023-12-20T00:39:20;4.50;99.90
7232;DHT22;3657;49.630;11.018;2023-12-20T00:41:47;4.50;99.90
7232;DHT22;3657;49.630;11.018;2023-12-20T00:44:13;4.50;99.90
7232;DHT22;3657;49.630;11.018;2023-12-20T00:46:41;4.50;99.90
7232;DHT22;3657;49.630;11.018;2023-12-20T00:49:08;4.50;99.90
7232;DHT22;3657;49.630;11.018;2023-12-20T00:51:35;4.50;99.90
7232;DHT22;3657;49.630;11.018;2023-12-20T00:54:01;4.50;99.90
7232;DHT22;3657;49.630;11.018;2023-12-20T00:56:27;4.50;99.90
7232;DHT22;3657;49.630;11.018;2023-12-20T00:58:54;4.50;99.90
7232;DHT22;3657;49.630;11.018;2023-12-20T01:01:21;4.50;99.90
7232;DHT22;3657;49.630;11.018;2023-12-20T01:03:49;4.50;99.90
7232;DHT22;3657;49.630;11.018;2023-12-20T01:06:16;4.50;99.90
7232;DHT22;3657;49.630;11.018;2023-12-20T01:08:43;4.50;99.90
7232;DHT22;3657;49.630;11.018;2023-12-20T01:11:10;4.50;99.90
7232;DHT22;3657;49.630;11.018;2023-12-20T01:13:36;4.50;99.90
7232;DHT22;3657;49.630;11.018;2023-12-20T01:16:03;4.50;99.90
7232;DHT22;3657;49.630;11.018;2023-12-20T01:18:31;4.50;99.90
7232;DHT22;3657;49.630;11.018;2023-12-20T01:21:02;4.50;99.90
7232;DHT22;3657;49.630;11.018;2023-12-20T01:23:29;4.50;99.90
7232;DHT22;3657;49.630;11.018;2023-12-20T01:25:56;4.50;99.90
7232;DHT22;3657;49.630;11.018;2023-12-20T01:28:25;4.50;99.90
7232;DHT22;3657;49.630;11.018;2023-12-20T01:30:51;4.50;99.90
7232;DHT22;3657;49.630;11.018;2023-12-20T01:33:18;4.50;99.90
7232;DHT22;3657;49.630;11.018;2023-12-20T01:35:45;4.50;99.90
7232;DHT22;3657;49.630;11.018;2023-12-20T01:38:13;4.50;99.90
7232;DHT22;3657;49.630;11.018;2023-12-20T01:40:39;4.50;99.90
7232;DHT22;3657;49.630;11.018;2023-12-20T01:43:07;4.50;99.90
7232;DHT22;3657;49.630;11.018;2023-12-20T01:45:35;4.50;99.90
7232;DHT22;3657;49.630;11.018;2023-12-20T01:48:02;4.50;99.90
7232;DHT22;3657;49.630;11.018;2023-12-20T01:50:31;4.50;99.90
7232;DHT22;3657;49.630;11.018;2023-12-20T01:53:00;4.50;99.90
7232;DHT22;3657;49.630;11.018;2023-12-20T01:55:31;4.50;99.90
7232;DHT22;3657;49.630;11.018;2023-12-20T01:57:59;4.50;99.90
7232;DHT22;3657;49.630;11.018;2023-12-20T02:00:27;4.50;99.90
7232;DHT22;3657;49.630;11.018;2023-12-20T02:02:55;4.40;99.90
7232;DHT22;3657;49.630;11.018;2023-12-20T02:05:22;4.40;99.90
7232;DHT22;3657;49.630;11.018;2023-12-20T02:07:51;4.40;99.90
7232;DHT22;3657;49.630;11.018;2023-12-20T02:10:17;4.40;99.90
7232;DHT22;3657;49.630;11.018;2023-12-20T02:12:45;4.50;99.90
7232;DHT22;3657;49.630;11.018;2023-12-20T02:15:12;4.40;99.90
7232;DHT22;3657;49.630;11.018;2023-12-20T02:17:39;4.40;99.90
7232;DHT22;3657;49.630;11.018;2023-12-20T02:20:07;4.40;99.90
7232;DHT22;3657;49.630;11.018;2023-12-20T02:22:35;4.40;99.90
7232;DHT22;3657;49.630;11.018;2023-12-20T02:25:02;4.40;99.90
7232;DHT22;3657;49.630;11.018;2023-12-20T02:27:29;4.40;99.90
7232;DHT22;3657;49.630;11.018;2023-12-20T02:29:56;4.40;99.90
7232;DHT22;3657;49.630;11.018;2023-12-20T02:32:24;4.40;99.90
7232;DHT22;3657;49.630;11.018;2023-12-20T02:34:51;4.40;99.90
7232;DHT22;3657;49.630;11.018;2023-12-20T02:37:18;4.40;99.90
7232;DHT22;3657;49.630;11.018;2023-12-20T02:39:46;4.40;99.90
7232;DHT22;3657;49.630;11.018;2023-12-20T02:42:13;4.30;99.90
7232;DHT22;3657;49.630;11.018;2023-12-20T02:44:40;4.30;99.90
7232;DHT22;3657;49.630;11.018;2023-12-20T02:47:06;4.30;99.90
7232;DHT22;3657;49.630;11.018;2023-12-20T02:49:33;4.40;99.90
7232;DHT22;3657;49.630;11.018;2023-12-20T02:52:00;4.30;99.90
7232;DHT22;3657;49.630;11.018;2023-12-20T02:54:26;4.30;99.90
7232;DHT22;3657;49.630;11.018;2023-12-20T02:56:54;4.30;99.90
7232;DHT22;3657;49.630;11.018;2023-12-20T02:59:21;4.30;99.90
7232;DHT22;3657;49.630;11.018;2023-12-20T03:01:47;4.30;99.90
7232;DHT22;3657;49.630;11.018;2023-12-20T03:04:14;4.30;99.90
7232;DHT22;3657;49.630;11.018;2023-12-20T03:06:41;4.30;99.90
7232;DHT22;3657;49.630;11.018;2023-12-20T03:09:08;4.30;99.90
7232;DHT22;3657;49.630;11.018;2023-12-20T03:11:34;4.30;99.90
7232;DHT22;3657;49.630;11.018;2023-12-20T03:14:02;4.30;99.90
7232;DHT22;3657;49.630;11.018;2023-12-20T03:16:29;4.30;99.90
7232;DHT22;3657;49.630;11.018;2023-12-20T03:18:58;4.30;99.90
7232;DHT22;3657;49.630;11.018;2023-12-20T03:21:25;4.20;99.90
7232;DHT22;3657;49.630;11.018;2023-12-20T03:23:51;4.30;99.90
7232;DHT22;3657;49.630;11.018;2023-12-20T03:26:18;4.20;99.90
7232;DHT22;3657;49.630;11.018;2023-12-20T03:28:45;4.20;99.90
7232;DHT22;3657;49.630;11.018;2023-12-20T03:31:13;4.20;99.90
7232;DHT22;3657;49.630;11.018;2023-12-20T03:33:39;4.30;99.90
7232;DHT22;3657;49.630;11.018;2023-12-20T03:36:06;4.30;99.90
7232;DHT22;3657;49.630;11.018;2023-12-20T03:38:33;4.20;99.90
7232;DHT22;3657;49.630;11.018;2023-12-20T03:41:00;4.20;99.90
7232;DHT22;3657;49.630;11.018;2023-12-20T03:43:26;4.20;99.90
7232;DHT22;3657;49.630;11.018;2023-12-20T03:45:53;4.20;99.90
7232;DHT22;3657;49.630;11.018;2023-12-20T03:48:21;4.30;99.90
7232;DHT22;3657;49.630;11.018;2023-12-20T03:50:48;4.20;99.90
7232;DHT22;3657;49.630;11.018;2023-12-20T03:53:14;4.20;99.90
7232;DHT22;3657;49.630;11.018;2023-12-20T03:55:41;4.20;99.90
7232;DHT22;3657;49.630;11.018;2023-12-20T03:58:08;4.20;99.90
7232;DHT22;3657;49.630;11.018;2023-12-20T04:00:34;4.20;99.90
7232;DHT22;3657;49.630;11.018;2023-12-20T04:03:01;4.20;99.90
7232;DHT22;3657;49.630;11.018;2023-12-20T04:05:29;4.10;99.90
7232;DHT22;3657;49.630;11.018;2023-12-20T04:07:55;4.20;99.90
7232;DHT22;3657;49.630;11.018;2023-12-20T04:10:22;4.20;99.90
7232;DHT22;3657;49.630;11.018;2023-12-20T04:12:49;4.20;99.90
7232;DHT22;3657;49.630;11.018;2023-12-20T04:15:15;4.20;99.90
7232;DHT22;3657;49.630;11.018;2023-12-20T04:17:42;4.10;99.90
7232;DHT22;3657;49.630;11.018;2023-12-20T04:20:10;4.10;99.90
7232;DHT22;3657;49.630;11.018;2023-12-20T04:22:38;4.10;99.90
7232;DHT22;3657;49.630;11.018;2023-12-20T04:25:05;4.10;99.90
7232;DHT22;3657;49.630;11.018;2023-12-20T04:27:32;4.10;99.90
7232;DHT22;3657;49.630;11.018;2023-12-20T04:29:58;4.10;99.90
7232;DHT22;3657;49.630;11.018;2023-12-20T04:32:25;4.10;99.90
7232;DHT22;3657;49.630;11.018;2023-12-20T04:34:51;4.10;99.90
7232;DHT22;3657;49.630;11.018;2023-12-20T04:37:17;4.10;99.90
7232;DHT22;3657;49.630;11.018;2023-12-20T04:39:45;4.10;99.90
7232;DHT22;3657;49.630;11.018;2023-12-20T04:42:12;4.10;99.90
7232;DHT22;3657;49.630;11.018;2023-12-20T04:44:39;4.10;99.90
7232;DHT22;3657;49.630;11.018;2023-12-20T04:47:05;4.10;99.90
7232;DHT22;3657;49.630;11.018;2023-12-20T04:49:32;4.10;99.90
7232;DHT22;3657;49.630;11.018;2023-12-20T04:51:59;4.10;99.90
7232;DHT22;3657;49.630;11.018;2023-12-20T04:54:25;4.00;99.90
7232;DHT22;3657;49.630;11.018;2023-12-20T04:56:53;4.10;99.90
7232;DHT22;3657;49.630;11.018;2023-12-20T04:59:20;4.00;99.90
7232;DHT22;3657;49.630;11.018;2023-12-20T05:01:47;4.10;99.90
7232;DHT22;3657;49.630;11.018;2023-12-20T05:04:14;4.10;99.90
7232;DHT22;3657;49.630;11.018;2023-12-20T05:06:40;4.00;99.90
7232;DHT22;3657;49.630;11.018;2023-12-20T05:09:07;4.10;99.90
7232;DHT22;3657;49.630;11.018;2023-12-20T05:11:34;4.10;99.90
7232;DHT22;3657;49.630;11.018;2023-12-20T05:14:02;4.10;99.90
7232;DHT22;3657;49.630;11.018;2023-12-20T05:16:29;4.10;99.90
7232;DHT22;3657;49.630;11.018;2023-12-20T05:18:55;4.00;99.90
7232;DHT22;3657;49.630;11.018;2023-12-20T05:21:22;4.10;99.90
7232;DHT22;3657;49.630;11.018;2023-12-20T05:23:49;4.00;99.90
7232;DHT22;3657;49.630;11.018;2023-12-20T05:26:15;4.10;99.90
7232;DHT22;3657;49.630;11.018;2023-12-20T05:28:42;4.10;99.90
7232;DHT22;3657;49.630;11.018;2023-12-20T05:31:10;4.00;99.90
7232;DHT22;3657;49.630;11.018;2023-12-20T05:33:37;4.00;99.90
7232;DHT22;3657;49.630;11.018;2023-12-20T05:36:04;4.10;99.90
7232;DHT22;3657;49.630;11.018;2023-12-20T05:38:30;4.00;99.90
7232;DHT22;3657;49.630;11.018;2023-12-20T05:40:58;4.00;99.90
7232;DHT22;3657;49.630;11.018;2023-12-20T05:43:24;4.00;99.90
7232;DHT22;3657;49.630;11.018;2023-12-20T05:45:51;4.00;99.90
7232;DHT22;3657;49.630;11.018;2023-12-20T05:48:19;4.00;99.90
7232;DHT22;3657;49.630;11.018;2023-12-20T05:50:45;4.00;99.90
7232;DHT22;3657;49.630;11.018;2023-12-20T05:53:12;4.00;99.90
7232;DHT22;3657;49.630;11.018;2023-12-20T05:55:39;4.00;99.90
7232;DHT22;3657;49.630;11.018;2023-12-20T05:58:06;4.10;99.90
7232;DHT22;3657;49.630;11.018;2023-12-20T06:00:32;4.00;99.90
7232;DHT22;3657;49.630;11.018;2023-12-20T06:02:59;4.00;99.90
7232;DHT22;3657;49.630;11.018;2023-12-20T06:05:27;4.00;99.90
7232;DHT22;3657;49.630;11.018;2023-12-20T06:07:53;4.00;99.90
7232;DHT22;3657;49.630;11.018;2023-12-20T06:10:22;4.10;99.90
7232;DHT22;3657;49.630;11.018;2023-12-20T06:12:48;4.00;99.90
7232;DHT22;3657;49.630;11.018;2023-12-20T06:15:16;4.10;99.90
7232;DHT22;3657;49.630;11.018;2023-12-20T06:17:43;4.00;99.90
7232;DHT22;3657;49.630;11.018;2023-12-20T06:20:10;4.10;99.90
7232;DHT22;3657;49.630;11.018;2023-12-20T06:22:38;4.10;99.90
7232;DHT22;3657;49.630;11.018;2023-12-20T06:25:05;4.10;99.90
7232;DHT22;3657;49.630;11.018;2023-12-20T06:27:32;4.10;99.90
7232;DHT22;3657;49.630;11.018;2023-12-20T06:29:59;4.10;99.90
7232;DHT22;3657;49.630;11.018;2023-12-20T06:32:25;4.10;99.90
7232;DHT22;3657;49.630;11.018;2023-12-20T06:34:54;4.10;99.90
7232;DHT22;3657;49.630;11.018;2023-12-20T06:37:21;4.10;99.90
7232;DHT22;3657;49.630;11.018;2023-12-20T06:39:49;4.10;99.90
7232;DHT22;3657;49.630;11.018;2023-12-20T06:42:15;4.10;99.90
7232;DHT22;3657;49.630;11.018;2023-12-20T06:44:42;4.10;99.90
7232;DHT22;3657;49.630;11.018;2023-12-20T06:47:09;4.00;99.90
7232;DHT22;3657;49.630;11.018;2023-12-20T06:49:36;4.10;99.90
7232;DHT22;3657;49.630;11.018;2023-12-20T06:52:03;4.10;99.90
7232;DHT22;3657;49.630;11.018;2023-12-20T06:54:29;4.10;99.90
7232;DHT22;3657;49.630;11.018;2023-12-20T06:56:57;4.10;99.90
7232;DHT22;3657;49.630;11.018;2023-12-20T06:59:24;4.00;99.90
7232;DHT22;3657;49.630;11.018;2023-12-20T07:01:51;4.10;99.90
7232;DHT22;3657;49.630;11.018;2023-12-20T07:04:18;4.10;99.90
7232;DHT22;3657;49.630;11.018;2023-12-20T07:06:47;4.10;99.90
7232;DHT22;3657;49.630;11.018;2023-12-20T07:09:14;4.10;99.90
7232;DHT22;3657;49.630;11.018;2023-12-20T07:11:40;4.10;99.90
7232;DHT22;3657;49.630;11.018;2023-12-20T07:14:08;4.10;99.90
7232;DHT22;3657;49.630;11.018;2023-12-20T07:16:35;4.10;99.90
7232;DHT22;3657;49.630;11.018;2023-12-20T07:19:02;4.10;99.90
7232;DHT22;3657;49.630;11.018;2023-12-20T07:21:28;4.10;99.90
7232;DHT22;3657;49.630;11.018;2023-12-20T07:23:55;4.10;99.90
7232;DHT22;3657;49.630;11.018;2023-12-20T07:26:22;4.10;99.90
7232;DHT22;3657;49.630;11.018;2023-12-20T07:28:48;4.10;99.90
7232;DHT22;3657;49.630;11.018;2023-12-20T07:31:16;4.10;99.90
7232;DHT22;3657;49.630;11.018;2023-12-20T07:33:43;4.10;99.90
7232;DHT22;3657;49.630;11.018;2023-12-20T07:36:10;4.10;99.90
7232;DHT22;3657;49.630;11.018;2023-12-20T07:38:37;4.10;99.90
7232;DHT22;3657;49.630;11.018;2023-12-20T07:41:03;4.10;99.90
7232;DHT22;3657;49.630;11.018;2023-12-20T07:43:30;4.10;99.90
7232;DHT22;3657;49.630;11.018;2023-12-20T07:45:57;4.10;99.90
7232;DHT22;3657;49.630;11.018;2023-12-20T07:48:25;4.10;99.90
7232;DHT22;3657;49.630;11.018;2023-12-20T07:50:51;4.10;99.90
7232;DHT22;3657;49.630;11.018;2023-12-20T07:53:19;4.10;99.90
7232;DHT22;3657;49.630;11.018;2023-12-20T07:55:46;4.10;99.90
7232;DHT22;3657;49.630;11.018;2023-12-20T07:58:12;4.10;99.90
7232;DHT22;3657;49.630;11.018;2023-12-20T08:00:39;4.10;99.90
7232;DHT22;3657;49.630;11.018;2023-12-20T08:03:05;4.20;99.90
7232;DHT22;3657;49.630;11.018;2023-12-20T08:05:33;4.20;99.90
7232;DHT22;3657;49.630;11.018;2023-12-20T08:08:00;4.20;99.90
7232;DHT22;3657;49.630;11.018;2023-12-20T08:10:27;4.20;99.90
7232;DHT22;3657;49.630;11.018;2023-12-20T08:12:55;4.20;99.90
7232;DHT22;3657;49.630;11.018;2023-12-20T08:15:21;4.20;99.90
7232;DHT22;3657;49.630;11.018;2023-12-20T08:17:48;4.20;99.90
7232;DHT22;3657;49.630;11.018;2023-12-20T08:20:16;4.20;99.90
7232;DHT22;3657;49.630;11.018;2023-12-20T08:22:44;4.20;99.90
7232;DHT22;3657;49.630;11.018;2023-12-20T08:25:11;4.20;99.90
7232;DHT22;3657;49.630;11.018;2023-12-20T08:27:39;4.20;99.90
7232;DHT22;3657;49.630;11.018;2023-12-20T08:30:08;4.20;99.90
7232;DHT22;3657;49.630;11.018;2023-12-20T08:32:35;4.30;99.90
7232;DHT22;3657;49.630;11.018;2023-12-20T08:35:02;4.30;99.90
7232;DHT22;3657;49.630;11.018;2023-12-20T08:37:29;4.30;99.90
7232;DHT22;3657;49.630;11.018;2023-12-20T08:39:57;4.30;99.90
7232;DHT22;3657;49.630;11.018;2023-12-20T08:42:24;4.30;99.90
7232;DHT22;3657;49.630;11.018;2023-12-20T08:44:56;4.30;99.90
7232;DHT22;3657;49.630;11.018;2023-12-20T08:47:23;4.30;99.90
7232;DHT22;3657;49.630;11.018;2023-12-20T08:49:49;4.30;99.90
7232;DHT22;3657;49.630;11.018;2023-12-20T08:52:16;4.30;99.90
7232;DHT22;3657;49.630;11.018;2023-12-20T08:54:43;4.30;99.90
7232;DHT22;3657;49.630;11.018;2023-12-20T08:57:11;4.30;99.90
7232;DHT22;3657;49.630;11.018;2023-12-20T08:59:38;4.30;99.90
7232;DHT22;3657;49.630;11.018;2023-12-20T09:02:04;4.40;99.90
7232;DHT22;3657;49.630;11.018;2023-12-20T09:04:32;4.40;99.90
7232;DHT22;3657;49.630;11.018;2023-12-20T09:06:59;4.50;99.90
7232;DHT22;3657;49.630;11.018;2023-12-20T09:09:26;4.60;99.90
7232;DHT22;3657;49.630;11.018;2023-12-20T09:11:53;4.70;99.90
7232;DHT22;3657;49.630;11.018;2023-12-20T09:14:21;4.80;99.90
7232;DHT22;3657;49.630;11.018;2023-12-20T09:16:47;4.90;99.90
7232;DHT22;3657;49.630;11.018;2023-12-20T09:19:16;5.10;99.90
7232;DHT22;3657;49.630;11.018;2023-12-20T09:21:43;5.30;99.90
7232;DHT22;3657;49.630;11.018;2023-12-20T09:24:10;5.40;99.90
7232;DHT22;3657;49.630;11.018;2023-12-20T09:26:36;5.60;99.90
7232;DHT22;3657;49.630;11.018;2023-12-20T09:29:05;5.90;99.90
7232;DHT22;3657;49.630;11.018;2023-12-20T09:31:36;6.10;99.90
7232;DHT22;3657;49.630;11.018;2023-12-20T09:34:03;6.30;99.90
7232;DHT22;3657;49.630;11.018;2023-12-20T09:36:30;6.60;99.90
7232;DHT22;3657;49.630;11.018;2023-12-20T09:39:00;6.70;99.90
7232;DHT22;3657;49.630;11.018;2023-12-20T09:41:27;6.90;99.90
7232;DHT22;3657;49.630;11.018;2023-12-20T09:43:55;7.00;99.90
7232;DHT22;3657;49.630;11.018;2023-12-20T09:46:26;6.90;99.90
7232;DHT22;3657;49.630;11.018;2023-12-20T09:48:57;6.70;99.90
7232;DHT22;3657;49.630;11.018;2023-12-20T09:51:25;6.30;99.90
7232;DHT22;3657;49.630;11.018;2023-12-20T09:53:54;6.00;99.90
7232;DHT22;3657;49.630;11.018;2023-12-20T09:56:23;5.70;99.90
7232;DHT22;3657;49.630;11.018;2023-12-20T09:58:51;5.50;99.90
7232;DHT22;3657;49.630;11.018;2023-12-20T10:01:19;5.40;99.90
7232;DHT22;3657;49.630;11.018;2023-12-20T10:03:47;5.30;99.90
7232;DHT22;3657;49.630;11.018;2023-12-20T10:06:15;5.20;99.90
7232;DHT22;3657;49.630;11.018;2023-12-20T10:08:41;5.10;99.90
7232;DHT22;3657;49.630;11.018;2023-12-20T10:11:09;5.00;99.90
7232;DHT22;3657;49.630;11.018;2023-12-20T10:13:39;5.00;99.90
7232;DHT22;3657;49.630;11.018;2023-12-20T10:16:06;5.00;99.90
7232;DHT22;3657;49.630;11.018;2023-12-20T10:18:33;5.00;99.90
7232;DHT22;3657;49.630;11.018;2023-12-20T10:21:00;5.00;99.90
7232;DHT22;3657;49.630;11.018;2023-12-20T10:23:28;5.00;99.90
7232;DHT22;3657;49.630;11.018;2023-12-20T10:25:56;5.00;99.90
7232;DHT22;3657;49.630;11.018;2023-12-20T10:28:23;5.00;99.90
7232;DHT22;3657;49.630;11.018;2023-12-20T10:30:53;5.00;99.90
7232;DHT22;3657;49.630;11.018;2023-12-20T10:33:24;5.00;99.90
7232;DHT22;3657;49.630;11.018;2023-12-20T10:35:52;5.00;99.90
7232;DHT22;3657;49.630;11.018;2023-12-20T10:38:19;5.00;99.90
7232;DHT22;3657;49.630;11.018;2023-12-20T10:40:47;5.00;99.90
7232;DHT22;3657;49.630;11.018;2023-12-20T10:43:15;5.00;99.90
7232;DHT22;3657;49.630;11.018;2023-12-20T10:45:42;5.00;99.90
7232;DHT22;3657;49.630;11.018;2023-12-20T10:48:10;5.00;99.90
7232;DHT22;3657;49.630;11.018;2023-12-20T10:50:38;5.10;99.90
7232;DHT22;3657;49.630;11.018;2023-12-20T10:53:06;5.10;99.90
7232;DHT22;3657;49.630;11.018;2023-12-20T10:55:33;5.10;99.90
7232;DHT22;3657;49.630;11.018;2023-12-20T10:58:07;5.20;99.90
7232;DHT22;3657;49.630;11.018;2023-12-20T11:00:36;5.30;99.90
7232;DHT22;3657;49.630;11.018;2023-12-20T11:03:05;5.30;99.90
7232;DHT22;3657;49.630;11.018;2023-12-20T11:05:40;5.30;99.90
7232;DHT22;3657;49.630;11.018;2023-12-20T11:08:13;5.30;99.90
7232;DHT22;3657;49.630;11.018;2023-12-20T11:10:46;5.30;99.90
7232;DHT22;3657;49.630;11.018;2023-12-20T11:13:20;5.30;99.90
7232;DHT22;3657;49.630;11.018;2023-12-20T11:15:49;5.30;99.90
7232;DHT22;3657;49.630;11.018;2023-12-20T11:18:15;5.30;99.90
7232;DHT22;3657;49.630;11.018;2023-12-20T11:20:42;5.30;99.90
7232;DHT22;3657;49.630;11.018;2023-12-20T11:23:09;5.30;99.90
7232;DHT22;3657;49.630;11.018;2023-12-20T11:25:47;5.30;99.90
7232;DHT22;3657;49.630;11.018;2023-12-20T11:28:14;5.30;99.90
7232;DHT22;3657;49.630;11.018;2023-12-20T11:30:45;5.30;99.90
7232;DHT22;3657;49.630;11.018;2023-12-20T11:33:13;5.30;99.90
7232;DHT22;3657;49.630;11.018;2023-12-20T11:35:40;5.30;99.90
7232;DHT22;3657;49.630;11.018;2023-12-20T11:38:08;5.30;99.90
7232;DHT22;3657;49.630;11.018;2023-12-20T11:40:35;5.40;99.90
7232;DHT22;3657;49.630;11.018;2023-12-20T11:43:03;5.40;99.90
7232;DHT22;3657;49.630;11.018;2023-12-20T11:45:30;5.40;99.90
7232;DHT22;3657;49.630;11.018;2023-12-20T11:47:58;5.40;99.90
7232;DHT22;3657;49.630;11.018;2023-12-20T11:50:25;5.40;99.90
7232;DHT22;3657;49.630;11.018;2023-12-20T11:52:53;5.40;99.90
7232;DHT22;3657;49.630;11.018;2023-12-20T11:55:20;5.40;99.90
7232;DHT22;3657;49.630;11.018;2023-12-20T11:57:47;5.40;99.90
7232;DHT22;3657;49.630;11.018;2023-12-20T12:00:15;5.40;99.90
7232;DHT22;3657;49.630;11.018;2023-12-20T12:02:41;5.40;99.90
7232;DHT22;3657;49.630;11.018;2023-12-20T12:05:09;5.40;99.90
7232;DHT22;3657;49.630;11.018;2023-12-20T12:07:36;5.40;99.90
7232;DHT22;3657;49.630;11.018;2023-12-20T12:10:03;5.40;99.90
7232;DHT22;3657;49.630;11.018;2023-12-20T12:12:30;5.50;99.90
7232;DHT22;3657;49.630;11.018;2023-12-20T12:14:58;5.40;99.90
7232;DHT22;3657;49.630;11.018;2023-12-20T12:17:25;5.40;99.90
7232;DHT22;3657;49.630;11.018;2023-12-20T12:20:02;5.50;99.90
7232;DHT22;3657;49.630;11.018;2023-12-20T12:22:31;5.50;99.90
7232;DHT22;3657;49.630;11.018;2023-12-20T12:24:59;5.50;99.90
7232;DHT22;3657;49.630;11.018;2023-12-20T12:27:27;5.50;99.90
7232;DHT22;3657;49.630;11.018;2023-12-20T12:30:00;5.40;99.90
7232;DHT22;3657;49.630;11.018;2023-12-20T12:32:28;5.50;99.90
7232;DHT22;3657;49.630;11.018;2023-12-20T12:34:55;5.40;99.90
7232;DHT22;3657;49.630;11.018;2023-12-20T12:37:22;5.40;99.90
7232;DHT22;3657;49.630;11.018;2023-12-20T12:39:53;5.40;99.90
7232;DHT22;3657;49.630;11.018;2023-12-20T12:42:20;5.40;99.90
7232;DHT22;3657;49.630;11.018;2023-12-20T12:44:47;5.40;99.90
7232;DHT22;3657;49.630;11.018;2023-12-20T12:47:13;5.40;99.90
7232;DHT22;3657;49.630;11.018;2023-12-20T12:49:40;5.40;99.90
7232;DHT22;3657;49.630;11.018;2023-12-20T12:52:07;5.40;99.90
7232;DHT22;3657;49.630;11.018;2023-12-20T12:54:34;5.40;99.90
7232;DHT22;3657;49.630;11.018;2023-12-20T12:57:03;5.40;99.90
7232;DHT22;3657;49.630;11.018;2023-12-20T12:59:30;5.40;99.90
7232;DHT22;3657;49.630;11.018;2023-12-20T13:01:57;5.40;99.90
7232;DHT22;3657;49.630;11.018;2023-12-20T13:04:24;5.40;99.90
7232;DHT22;3657;49.630;11.018;2023-12-20T13:06:50;5.40;99.90
7232;DHT22;3657;49.630;11.018;2023-12-20T13:09:17;5.40;99.90
7232;DHT22;3657;49.630;11.018;2023-12-20T13:11:44;5.40;99.90
7232;DHT22;3657;49.630;11.018;2023-12-20T13:14:12;5.40;99.90
7232;DHT22;3657;49.630;11.018;2023-12-20T13:16:41;5.40;99.90
7232;DHT22;3657;49.630;11.018;2023-12-20T13:19:07;5.40;99.90
7232;DHT22;3657;49.630;11.018;2023-12-20T13:21:35;5.40;99.90
7232;DHT22;3657;49.630;11.018;2023-12-20T13:24:02;5.40;99.90
7232;DHT22;3657;49.630;11.018;2023-12-20T13:26:29;5.40;99.90
7232;DHT22;3657;49.630;11.018;2023-12-20T13:28:55;5.40;99.90
7232;DHT22;3657;49.630;11.018;2023-12-20T13:31:23;5.30;99.90
7232;DHT22;3657;49.630;11.018;2023-12-20T13:33:50;5.30;99.90
7232;DHT22;3657;49.630;11.018;2023-12-20T13:36:17;5.30;99.90
7232;DHT22;3657;49.630;11.018;2023-12-20T13:38:44;5.20;99.90
7232;DHT22;3657;49.630;11.018;2023-12-20T13:41:11;5.30;99.90
7232;DHT22;3657;49.630;11.018;2023-12-20T13:43:37;5.20;99.90
7232;DHT22;3657;49.630;11.018;2023-12-20T13:46:04;5.20;99.90
7232;DHT22;3657;49.630;11.018;2023-12-20T13:48:32;5.20;99.90
7232;DHT22;3657;49.630;11.018;2023-12-20T13:50:59;5.20;99.90
7232;DHT22;3657;49.630;11.018;2023-12-20T13:53:25;5.20;99.90
7232;DHT22;3657;49.630;11.018;2023-12-20T13:55:52;5.20;99.90
7232;DHT22;3657;49.630;11.018;2023-12-20T13:58:19;5.20;99.90
7232;DHT22;3657;49.630;11.018;2023-12-20T14:00:46;5.20;99.90
7232;DHT22;3657;49.630;11.018;2023-12-20T14:03:13;5.20;99.90
7232;DHT22;3657;49.630;11.018;2023-12-20T14:05:41;5.20;99.90
7232;DHT22;3657;49.630;11.018;2023-12-20T14:08:08;5.20;99.90
7232;DHT22;3657;49.630;11.018;2023-12-20T14:10:35;5.20;99.90
7232;DHT22;3657;49.630;11.018;2023-12-20T14:13:02;5.10;99.90
7232;DHT22;3657;49.630;11.018;2023-12-20T14:15:29;5.20;99.90
7232;DHT22;3657;49.630;11.018;2023-12-20T14:17:55;5.10;99.90
7232;DHT22;3657;49.630;11.018;2023-12-20T14:20:22;5.10;99.90
7232;DHT22;3657;49.630;11.018;2023-12-20T14:22:50;5.10;99.90
7232;DHT22;3657;49.630;11.018;2023-12-20T14:25:17;5.10;99.90
7232;DHT22;3657;49.630;11.018;2023-12-20T14:27:44;5.10;99.90
7232;DHT22;3657;49.630;11.018;2023-12-20T14:30:11;5.10;99.90
7232;DHT22;3657;49.630;11.018;2023-12-20T14:32:39;5.10;99.90
7232;DHT22;3657;49.630;11.018;2023-12-20T14:35:06;5.10;99.90
7232;DHT22;3657;49.630;11.018;2023-12-20T14:37:33;5.10;99.90
7232;DHT22;3657;49.630;11.018;2023-12-20T14:40:01;5.10;99.90
7232;DHT22;3657;49.630;11.018;2023-12-20T14:42:28;5.10;99.90
7232;DHT22;3657;49.630;11.018;2023-12-20T14:44:55;5.10;99.90
7232;DHT22;3657;49.630;11.018;2023-12-20T14:47:21;5.10;99.90
7232;DHT22;3657;49.630;11.018;2023-12-20T14:49:50;5.00;99.90
7232;DHT22;3657;49.630;11.018;2023-12-20T14:52:17;5.10;99.90
7232;DHT22;3657;49.630;11.018;2023-12-20T14:54:44;5.00;99.90
7232;DHT22;3657;49.630;11.018;2023-12-20T14:57:12;5.00;99.90
7232;DHT22;3657;49.630;11.018;2023-12-20T14:59:39;5.00;99.90
7232;DHT22;3657;49.630;11.018;2023-12-20T15:02:06;5.00;99.90
7232;DHT22;3657;49.630;11.018;2023-12-20T15:04:32;5.00;99.90
7232;DHT22;3657;49.630;11.018;2023-12-20T15:06:59;4.90;99.90
7232;DHT22;3657;49.630;11.018;2023-12-20T15:09:26;4.90;99.90
7232;DHT22;3657;49.630;11.018;2023-12-20T15:11:55;4.90;99.90
7232;DHT22;3657;49.630;11.018;2023-12-20T15:14:23;4.90;99.90
7232;DHT22;3657;49.630;11.018;2023-12-20T15:16:49;4.90;99.90
7232;DHT22;3657;49.630;11.018;2023-12-20T15:19:16;4.90;99.90
7232;DHT22;3657;49.630;11.018;2023-12-20T15:21:42;4.90;99.90
7232;DHT22;3657;49.630;11.018;2023-12-20T15:24:09;4.90;99.90
7232;DHT22;3657;49.630;11.018;2023-12-20T15:26:40;4.90;99.90
7232;DHT22;3657;49.630;11.018;2023-12-20T15:29:07;4.90;99.90
7232;DHT22;3657;49.630;11.018;2023-12-20T15:31:37;4.80;99.90
7232;DHT22;3657;49.630;11.018;2023-12-20T15:34:08;4.80;99.90
7232;DHT22;3657;49.630;11.018;2023-12-20T15:36:34;4.80;99.90
7232;DHT22;3657;49.630;11.018;2023-12-20T15:39:01;4.80;99.90
7232;DHT22;3657;49.630;11.018;2023-12-20T15:41:29;4.80;99.90
7232;DHT22;3657;49.630;11.018;2023-12-20T15:43:56;4.80;99.90
7232;DHT22;3657;49.630;11.018;2023-12-20T15:46:23;4.80;99.90
7232;DHT22;3657;49.630;11.018;2023-12-20T15:48:51;4.80;99.90
7232;DHT22;3657;49.630;11.018;2023-12-20T15:51:20;4.80;99.90
7232;DHT22;3657;49.630;11.018;2023-12-20T15:53:47;4.80;99.90
7232;DHT22;3657;49.630;11.018;2023-12-20T15:56:13;4.80;99.90
7232;DHT22;3657;49.630;11.018;2023-12-20T15:58:40;4.70;99.90
7232;DHT22;3657;49.630;11.018;2023-12-20T16:01:07;4.70;99.90